Time;durP1;ratioP1;P1;durP2;ratioP2;P2;SDS_P1;SDS_P2;PMS_P1;PMS_P2;Temp;Humidity;BMP_temperature;BMP_pressure;BME280_temperature;BME280_humidity;BME280_pressure;Samples;Min_cycle;Max_cycle;Signal;HPM_P1;HPM_P2
2022/08/07 00:02:14;;;;;;;6.85;2.60;;;;;;;14.96;81.72;102560.28;5090656;28;20071;-59
2022/08/07 00:05:03;;;;;;;6.32;2.72;;;;;;;14.93;81.73;102555.13;5093734;28;20051;-60
2022/08/07 00:07:33;;;;;;;5.72;2.30;;;;;;;14.93;81.69;102560.44;5092812;28;20036;-60
2022/08/07 00:10:08;;;;;;;6.45;2.80;;;;;;;14.94;81.75;102562.13;5094101;28;20098;-57
2022/08/07 00:12:57;;;;;;;5.72;2.75;;;;;;;14.91;81.78;102563.16;5094312;28;20091;-60
2022/08/07 00:15:28;;;;;;;5.80;2.60;;;;;;;14.86;82.00;102551.97;5094297;28;20074;-60
2022/08/07 00:18:15;;;;;;;4.97;2.50;;;;;;;14.80;82.54;102555.81;5094027;28;20032;-60
2022/08/07 00:20:48;;;;;;;8.48;2.88;;;;;;;14.80;82.18;102557.63;5093458;28;20048;-60
2022/08/07 00:23:16;;;;;;;5.82;3.03;;;;;;;14.69;82.46;102552.94;5089739;28;20074;-57
2022/08/07 00:25:48;;;;;;;7.90;2.92;;;;;;;14.70;82.16;102552.84;5091045;28;20127;-60
2022/08/07 00:28:27;;;;;;;6.65;3.00;;;;;;;14.68;82.79;102546.78;5092128;28;20134;-57
2022/08/07 00:31:02;;;;;;;6.00;2.78;;;;;;;14.64;83.03;102547.91;5089085;28;20048;-60
2022/08/07 00:33:35;;;;;;;7.15;3.22;;;;;;;14.55;83.09;102543.06;5092544;28;20048;-60
2022/08/07 00:36:07;;;;;;;7.25;3.42;;;;;;;14.53;83.02;102535.22;5093296;28;20083;-57
2022/08/07 00:38:36;;;;;;;6.90;3.30;;;;;;;14.59;83.25;102538.44;5092872;28;20394;-59
2022/08/07 00:41:07;;;;;;;7.32;3.70;;;;;;;14.59;83.43;102541.09;5091299;28;20047;-60
2022/08/07 00:43:42;;;;;;;8.18;3.38;;;;;;;14.54;83.76;102538.72;5089077;28;20052;-59
2022/08/07 00:46:30;;;;;;;8.02;3.55;;;;;;;14.54;83.16;102536.06;5092098;28;20101;-61
2022/08/07 00:49:02;;;;;;;6.68;3.72;;;;;;;14.54;83.00;102530.75;5092903;28;20048;-60
2022/08/07 00:51:31;;;;;;;9.25;3.30;;;;;;;14.54;82.81;102533.41;5091131;28;20520;-56
2022/08/07 00:54:19;;;;;;;6.70;3.20;;;;;;;14.49;82.90;102530.16;5088222;28;20106;-58
2022/08/07 00:56:49;;;;;;;6.80;3.50;;;;;;;14.55;82.67;102529.84;5092157;28;20064;-60
2022/08/07 00:59:18;;;;;;;7.97;3.40;;;;;;;14.51;83.58;102530.94;5092870;28;20040;-57
2022/08/07 01:02:01;;;;;;;8.15;3.50;;;;;;;14.51;82.99;102520.34;5092891;28;20040;-56
2022/08/07 01:04:34;;;;;;;7.13;3.53;;;;;;;14.44;82.76;102524.25;5092525;28;20105;-61
2022/08/07 01:07:10;;;;;;;8.70;4.15;;;;;;;14.42;83.13;102521.69;5092380;28;20047;-61
2022/08/07 01:09:40;;;;;;;7.45;3.85;;;;;;;14.42;83.02;102518.22;5091625;28;20060;-57
2022/08/07 01:12:28;;;;;;;7.20;3.97;;;;;;;14.32;83.36;102510.78;5088445;28;20047;-56
2022/08/07 01:14:59;;;;;;;6.03;3.35;;;;;;;14.38;83.21;102517.50;5089516;28;20048;-60
2022/08/07 01:17:29;;;;;;;8.73;4.07;;;;;;;14.32;83.39;102516.06;5092656;28;20032;-60
2022/08/07 01:20:05;;;;;;;8.45;4.00;;;;;;;14.33;83.77;102520.44;5092928;28;20036;-60
2022/08/07 01:22:37;;;;;;;7.97;4.00;;;;;;;14.28;84.08;102519.81;5092687;28;20058;-58
2022/08/07 01:25:26;;;;;;;7.07;3.65;;;;;;;14.29;84.66;102515.34;5092730;28;20054;-61
2022/08/07 01:28:14;;;;;;;8.50;4.40;;;;;;;14.32;84.44;102508.13;5088891;28;20515;-57
2022/08/07 01:30:44;;;;;;;9.10;3.95;;;;;;;14.32;84.91;102513.41;5089967;28;20560;-58
2022/08/07 01:33:13;;;;;;;8.32;4.60;;;;;;;14.24;84.86;102518.28;5092731;28;20101;-61
2022/08/07 01:35:42;;;;;;;8.10;4.25;;;;;;;14.28;84.98;102511.88;5090655;28;20047;-60
2022/08/07 01:38:24;;;;;;;7.63;4.03;;;;;;;14.26;85.39;102508.47;5088520;28;20066;-59
2022/08/07 01:40:59;;;;;;;8.35;4.28;;;;;;;14.29;85.61;102505.66;5091974;28;20123;-56
2022/08/07 01:43:29;;;;;;;8.75;4.30;;;;;;;14.20;85.72;102509.63;5092818;28;20082;-59
2022/08/07 01:46:06;;;;;;;8.75;4.40;;;;;;;14.16;86.36;102502.81;5092674;28;20055;-57
2022/08/07 01:48:41;;;;;;;8.38;4.15;;;;;;;14.13;86.12;102507.41;5090238;28;20421;-60
2022/08/07 01:51:19;;;;;;;16.60;5.40;;;;;;;14.08;86.67;102502.34;5089481;28;20052;-61
2022/08/07 01:54:11;;;;;;;9.40;4.47;;;;;;;14.19;86.04;102502.66;5091959;28;20384;-60
2022/08/07 01:57:04;;;;;;;8.18;4.35;;;;;;;14.07;86.64;102502.44;5092282;28;20118;-56
2022/08/07 01:59:42;;;;;;;9.13;4.65;;;;;;;14.02;86.33;102503.56;5090088;28;20048;-60
2022/08/07 02:02:19;;;;;;;7.35;4.40;;;;;;;14.01;86.30;102499.19;5089420;28;20052;-60
2022/08/07 02:05:10;;;;;;;8.05;4.20;;;;;;;14.02;86.06;102498.25;5091069;28;20052;-57
2022/08/07 02:07:49;;;;;;;9.38;4.43;;;;;;;14.00;86.40;102504.56;5092193;28;20071;-59
2022/08/07 02:10:25;;;;;;;9.23;4.60;;;;;;;13.98;86.01;102501.16;5089158;28;20131;-59
2022/08/07 02:12:56;;;;;;;9.18;4.68;;;;;;;13.92;86.28;102501.47;5090495;28;20455;-56
2022/08/07 02:15:29;;;;;;;8.63;4.55;;;;;;;13.88;86.61;102498.16;5092391;28;20112;-56
2022/08/07 02:18:02;;;;;;;8.50;4.80;;;;;;;13.82;86.90;102501.13;5092194;28;20048;-59
2022/08/07 02:20:33;;;;;;;8.23;4.53;;;;;;;13.85;86.46;102499.16;5092060;28;20101;-57
2022/08/07 02:23:04;;;;;;;8.75;4.97;;;;;;;13.85;86.86;102487.72;5092155;28;20039;-58
2022/08/07 02:25:36;;;;;;;8.45;4.38;;;;;;;13.89;86.27;102493.72;5092135;28;20051;-56
2022/08/07 02:28:28;;;;;;;8.55;5.03;;;;;;;13.82;87.38;102490.53;5095844;28;20047;-56
2022/08/07 02:30:58;;;;;;;9.40;5.45;;;;;;;13.80;87.45;102492.41;5093369;28;20562;-56
2022/08/07 02:33:46;;;;;;;7.75;4.57;;;;;;;13.83;86.99;102487.81;5094384;28;20093;-56
2022/08/07 02:36:32;;;;;;;9.88;5.00;;;;;;;13.72;87.73;102489.31;5091544;28;20203;-58
2022/08/07 02:39:04;;;;;;;9.43;5.05;;;;;;;13.65;88.44;102487.00;5092515;28;20044;-57
2022/08/07 02:41:46;;;;;;;8.77;4.70;;;;;;;13.67;88.73;102486.91;5095662;28;20105;-60
2022/08/07 02:44:24;;;;;;;10.52;5.75;;;;;;;13.67;88.61;102481.63;5096032;28;20056;-60
2022/08/07 02:46:59;;;;;;;8.15;5.28;;;;;;;13.69;88.82;102485.91;5095950;28;20044;-57
2022/08/07 02:49:28;;;;;;;8.10;4.75;;;;;;;13.61;89.20;102487.25;5095560;28;20048;-57
2022/08/07 02:52:23;;;;;;;9.25;5.30;;;;;;;13.69;89.15;102491.19;5095681;28;20059;-56
2022/08/07 02:55:03;;;;;;;9.93;5.05;;;;;;;13.65;89.14;102491.44;5095419;28;20059;-60
2022/08/07 02:57:46;;;;;;;8.15;5.00;;;;;;;13.63;89.85;102491.53;5094984;28;20075;-59
2022/08/07 03:00:15;;;;;;;9.03;5.50;;;;;;;13.64;90.03;102487.06;5092852;28;20052;-60
2022/08/07 03:02:51;;;;;;;9.93;5.35;;;;;;;13.62;89.36;102486.28;5093843;28;20044;-57
2022/08/07 03:05:24;;;;;;;8.57;5.18;;;;;;;13.64;89.26;102481.78;5093407;28;20050;-54
2022/08/07 03:07:53;;;;;;;7.82;5.07;;;;;;;13.58;89.44;102482.97;5091164;28;20055;-60
2022/08/07 03:10:38;;;;;;;10.77;5.70;;;;;;;13.53;89.89;102480.53;5095111;28;20048;-60
2022/08/07 03:13:15;;;;;;;9.82;5.45;;;;;;;13.51;90.35;102486.84;5094703;28;20060;-57
2022/08/07 03:15:48;;;;;;;10.73;5.45;;;;;;;13.49;90.92;102483.44;5096014;28;20101;-55
2022/08/07 03:18:26;;;;;;;9.60;5.10;;;;;;;13.49;90.94;102484.28;5095992;28;20052;-55
2022/08/07 03:21:05;;;;;;;9.65;5.30;;;;;;;13.41;91.60;102480.34;5092491;28;20055;-56
2022/08/07 03:23:39;;;;;;;9.05;5.18;;;;;;;13.39;91.04;102480.41;5093518;28;20052;-59
2022/08/07 03:26:31;;;;;;;10.18;5.55;;;;;;;13.34;91.53;102496.44;5096088;28;20048;-60
2022/08/07 03:29:05;;;;;;;11.35;5.60;;;;;;;13.37;91.65;102486.72;5093161;28;20063;-60
2022/08/07 03:31:42;;;;;;;10.25;5.07;;;;;;;13.37;91.94;102484.06;5091078;28;20450;-60
2022/08/07 03:34:19;;;;;;;9.50;5.10;;;;;;;13.30;92.26;102486.97;5095084;28;20048;-57
2022/08/07 03:36:51;;;;;;;10.18;5.43;;;;;;;13.33;92.17;102481.56;5093468;28;20048;-60
2022/08/07 03:39:22;;;;;;;8.88;4.68;;;;;;;13.35;92.37;102482.34;5093746;28;20094;-60
2022/08/07 03:42:11;;;;;;;9.00;4.55;;;;;;;13.31;92.86;102478.13;5091791;28;20040;-55
2022/08/07 03:44:41;;;;;;;8.82;5.70;;;;;;;13.26;93.76;102482.78;5092914;28;20055;-55
2022/08/07 03:47:20;;;;;;;8.80;5.22;;;;;;;13.18;94.37;102475.25;5094589;28;20036;-57
2022/08/07 03:49:56;;;;;;;10.25;5.28;;;;;;;13.15;94.26;102485.97;5094229;28;20475;-55
2022/08/07 03:52:27;;;;;;;9.00;5.20;;;;;;;13.13;94.57;102482.56;5094513;28;20059;-59
2022/08/07 03:54:57;;;;;;;9.93;5.72;;;;;;;13.14;94.79;102488.69;5094365;28;20046;-60
2022/08/07 03:57:36;;;;;;;8.73;5.55;;;;;;;13.16;94.66;102486.84;5094351;28;20064;-57
2022/08/07 04:00:26;;;;;;;10.52;6.00;;;;;;;12.88;95.52;102477.63;5094388;28;20044;-60
2022/08/07 04:02:58;;;;;;;10.27;5.70;;;;;;;12.89;95.78;102483.78;5094387;28;20048;-56
2022/08/07 04:05:34;;;;;;;11.80;6.15;;;;;;;12.95;95.15;102486.97;5094762;28;20542;-57
2022/08/07 04:08:11;;;;;;;10.38;6.15;;;;;;;12.99;94.79;102485.88;5094282;28;20036;-56
2022/08/07 04:10:40;;;;;;;11.07;5.97;;;;;;;12.97;95.16;102482.44;5094224;28;20052;-59
2022/08/07 04:13:33;;;;;;;10.68;6.20;;;;;;;13.02;95.07;102490.16;5089727;28;20090;-59
2022/08/07 04:16:22;;;;;;;10.43;6.05;;;;;;;12.95;95.40;102483.44;5093107;28;20052;-59
2022/08/07 04:18:59;;;;;;;9.73;6.20;;;;;;;13.01;95.66;102484.00;5094247;28;20559;-59
2022/08/07 04:21:31;;;;;;;10.85;5.90;;;;;;;12.94;95.80;102487.88;5093207;28;20054;-55
2022/08/07 04:24:01;;;;;;;12.07;7.13;;;;;;;12.92;96.71;102491.53;5090203;28;20036;-60
2022/08/07 04:26:34;;;;;;;11.05;6.28;;;;;;;12.89;97.51;102496.97;5092752;28;20048;-59
2022/08/07 04:29:02;;;;;;;11.80;6.75;;;;;;;12.89;97.09;102497.81;5094544;28;20044;-57
2022/08/07 04:31:32;;;;;;;9.63;6.07;;;;;;;12.93;97.15;102495.91;5092592;28;20048;-60
2022/08/07 04:34:23;;;;;;;10.50;6.50;;;;;;;12.95;97.47;102509.84;5093128;28;20418;-58
2022/08/07 04:37:04;;;;;;;14.05;6.60;;;;;;;12.90;98.02;102510.09;5089954;28;20151;-56
2022/08/07 04:39:42;;;;;;;14.98;7.25;;;;;;;12.87;99.13;102509.38;5092450;28;20054;-57
2022/08/07 04:42:17;;;;;;;10.80;6.95;;;;;;;12.95;99.25;102508.09;5093801;28;20131;-54
2022/08/07 04:44:45;;;;;;;11.23;7.10;;;;;;;12.93;99.13;102509.09;5093061;28;20089;-59
2022/08/07 04:47:35;;;;;;;12.35;6.63;;;;;;;12.97;99.10;102506.22;5090791;28;20047;-59
2022/08/07 04:50:34;;;;;;;14.07;7.60;;;;;;;12.97;99.05;102514.13;5092967;28;20120;-60
2022/08/07 04:53:10;;;;;;;11.82;6.57;;;;;;;13.00;99.03;102507.84;5089936;28;20052;-56
2022/08/07 04:56:05;;;;;;;11.98;6.90;;;;;;;12.93;99.26;102509.94;5092456;28;20087;-59
2022/08/07 04:59:02;;;;;;;12.57;7.43;;;;;;;12.91;99.82;102514.44;5093035;28;20041;-56
2022/08/07 05:02:00;;;;;;;13.30;7.00;;;;;;;12.94;100.00;102514.28;5092620;28;20075;-55
2022/08/07 05:04:39;;;;;;;12.95;7.70;;;;;;;12.94;100.00;102519.56;5093049;28;20075;-57
2022/08/07 05:07:19;;;;;;;14.63;7.38;;;;;;;12.94;100.00;102522.22;5092000;28;20552;-56
2022/08/07 05:09:57;;;;;;;13.60;7.03;;;;;;;12.94;100.00;102514.28;5089680;28;20072;-59
2022/08/07 05:12:34;;;;;;;11.05;7.40;;;;;;;12.96;100.00;102516.84;5090307;28;20044;-55
2022/08/07 05:15:15;;;;;;;12.80;7.57;;;;;;;13.04;99.76;102521.78;5092916;28;20048;-56
2022/08/07 05:17:56;;;;;;;15.98;8.20;;;;;;;13.01;100.00;102520.13;5092814;28;20042;-60
2022/08/07 05:20:30;;;;;;;11.35;6.63;;;;;;;13.09;100.00;102525.03;5092706;28;20044;-57
2022/08/07 05:23:04;;;;;;;12.07;8.13;;;;;;;13.06;99.86;102530.47;5092794;28;20059;-56
2022/08/07 05:25:44;;;;;;;14.07;8.75;;;;;;;13.08;99.09;102520.69;5092927;28;20047;-56
2022/08/07 05:28:35;;;;;;;14.02;8.25;;;;;;;13.10;98.87;102524.09;5091480;28;20070;-54
2022/08/07 05:31:10;;;;;;;13.25;7.50;;;;;;;13.13;99.31;102527.47;5090125;28;20059;-55
2022/08/07 05:33:45;;;;;;;14.55;8.40;;;;;;;13.15;99.11;102522.94;5092023;28;20094;-60
2022/08/07 05:36:34;;;;;;;15.20;8.10;;;;;;;13.25;98.66;102528.66;5092340;28;20048;-57
2022/08/07 05:39:06;;;;;;;13.00;8.23;;;;;;;13.31;97.88;102524.84;5092648;28;20052;-60
2022/08/07 05:41:55;;;;;;;14.27;8.20;;;;;;;13.40;97.58;102524.38;5090206;28;20051;-60
2022/08/07 05:44:35;;;;;;;15.02;8.70;;;;;;;13.53;97.36;102527.28;5089381;28;20133;-57
2022/08/07 05:47:09;;;;;;;14.73;9.02;;;;;;;13.59;97.02;102519.00;5093007;28;20052;-59
2022/08/07 05:49:49;;;;;;;14.95;8.70;;;;;;;13.71;97.36;102527.28;5091235;28;20070;-56
2022/08/07 05:52:19;;;;;;;14.35;8.30;;;;;;;13.81;97.37;102524.06;5092280;28;20066;-59
2022/08/07 05:54:59;;;;;;;12.40;8.40;;;;;;;13.89;96.42;102522.81;5092264;28;20058;-58
2022/08/07 05:57:39;;;;;;;12.60;8.02;;;;;;;13.97;96.36;102531.19;5092305;28;20090;-59
2022/08/07 06:00:11;;;;;;;14.07;8.45;;;;;;;14.06;96.20;102535.13;5091097;28;20040;-55
2022/08/07 06:02:47;;;;;;;12.38;7.95;;;;;;;14.15;96.08;102529.34;5088654;28;20600;-60
2022/08/07 06:05:19;;;;;;;12.35;7.78;;;;;;;14.26;95.94;102526.13;5091449;28;20165;-56
2022/08/07 06:07:58;;;;;;;16.98;8.82;;;;;;;14.37;96.59;102531.72;5088056;28;20585;-56
2022/08/07 06:10:46;;;;;;;12.65;8.60;;;;;;;14.47;95.91;102535.53;5090461;28;20090;-55
2022/08/07 06:13:21;;;;;;;13.07;8.65;;;;;;;14.59;95.12;102536.66;5091999;28;20086;-56
2022/08/07 06:16:09;;;;;;;13.45;8.68;;;;;;;14.69;94.22;102532.59;5092505;28;20517;-60
2022/08/07 06:18:40;;;;;;;15.20;9.38;;;;;;;14.79;93.66;102527.66;5092371;28;20044;-61
2022/08/07 06:21:19;;;;;;;16.02;9.32;;;;;;;14.90;92.64;102534.13;5091989;28;20043;-60
2022/08/07 06:24:09;;;;;;;14.43;8.52;;;;;;;15.00;90.87;102535.31;5091759;28;20048;-57
2022/08/07 06:26:57;;;;;;;12.25;7.70;;;;;;;15.13;90.99;102538.09;5092169;28;20044;-60
2022/08/07 06:29:32;;;;;;;14.88;8.38;;;;;;;15.26;90.74;102544.41;5091976;28;20044;-57
2022/08/07 06:32:00;;;;;;;13.77;8.07;;;;;;;15.38;90.40;102542.84;5091992;28;20040;-58
2022/08/07 06:34:31;;;;;;;13.10;8.23;;;;;;;15.54;90.79;102540.13;5091934;28;20052;-57
2022/08/07 06:37:00;;;;;;;13.02;8.25;;;;;;;15.64;89.28;102533.34;5088696;28;20071;-60
2022/08/07 06:39:31;;;;;;;15.90;8.98;;;;;;;15.81;89.06;102534.13;5089701;28;20075;-58
2022/08/07 06:42:24;;;;;;;13.32;8.65;;;;;;;15.98;88.60;102533.97;5089799;28;20036;-58
2022/08/07 06:45:03;;;;;;;13.90;9.95;;;;;;;16.09;87.98;102527.13;5089236;28;20055;-58
2022/08/07 06:47:32;;;;;;;17.00;9.38;;;;;;;16.22;88.86;102530.72;5091961;28;20055;-60
2022/08/07 06:50:20;;;;;;;15.05;9.82;;;;;;;16.37;87.36;102529.78;5092000;28;20418;-57
2022/08/07 06:52:53;;;;;;;16.30;9.85;;;;;;;16.49;85.46;102522.81;5089528;28;20105;-60
2022/08/07 06:55:27;;;;;;;16.92;9.80;;;;;;;16.66;85.77;102521.75;5088818;28;20430;-60
2022/08/07 06:58:16;;;;;;;12.93;8.75;;;;;;;16.80;85.85;102518.19;5091892;28;20097;-58
2022/08/07 07:00:49;;;;;;;14.63;8.50;;;;;;;16.97;84.65;102508.28;5091597;28;20184;-57
2022/08/07 07:03:20;;;;;;;13.18;8.80;;;;;;;17.13;83.53;102508.13;5091543;28;20094;-61
2022/08/07 07:06:08;;;;;;;13.70;8.60;;;;;;;17.31;81.38;102514.03;5091868;28;20494;-58
2022/08/07 07:08:38;;;;;;;14.27;8.85;;;;;;;17.44;80.60;102508.72;5090291;28;20438;-59
2022/08/07 07:11:15;;;;;;;16.75;9.10;;;;;;;17.60;80.05;102509.38;5087120;28;20052;-58
2022/08/07 07:14:04;;;;;;;12.75;7.60;;;;;;;17.78;78.68;102509.91;5092102;28;20067;-60
2022/08/07 07:16:38;;;;;;;;;;;;;;;18.01;76.12;102507.47;5092915;28;20503;-58
2022/08/07 07:19:21;;;;;;;12.02;6.88;;;;;;;18.18;74.62;102503.63;5093098;28;20383;-59
2022/08/07 07:22:11;;;;;;;10.57;6.63;;;;;;;18.36;73.05;102512.94;5095016;28;20128;-60
2022/08/07 07:25:00;;;;;;;11.00;7.15;;;;;;;18.54;71.90;102509.91;5094754;28;20047;-58
2022/08/07 07:27:35;;;;;;;11.05;6.22;;;;;;;18.70;72.75;102502.47;5094798;28;20040;-61
2022/08/07 07:30:27;;;;;;;13.40;7.07;;;;;;;18.87;67.95;102511.91;5093538;28;20036;-58
2022/08/07 07:33:07;;;;;;;13.82;7.85;;;;;;;19.07;70.25;102502.47;5093446;28;20139;-58
2022/08/07 07:35:41;;;;;;;12.48;6.60;;;;;;;19.25;69.13;102502.88;5094462;28;20081;-59
2022/08/07 07:38:23;;;;;;;11.23;5.82;;;;;;;19.37;65.06;102510.91;5094507;28;20542;-60
2022/08/07 07:40:54;;;;;;;10.27;6.32;;;;;;;19.57;64.78;102502.19;5094187;28;20052;-60
2022/08/07 07:43:33;;;;;;;10.18;5.40;;;;;;;19.71;63.72;102508.28;5093343;28;20051;-62
2022/08/07 07:46:23;;;;;;;12.13;6.57;;;;;;;19.90;63.82;102513.91;5091699;28;20048;-60
2022/08/07 07:49:17;;;;;;;10.50;6.15;;;;;;;20.18;63.69;102521.53;5093575;28;20063;-60
2022/08/07 07:52:06;;;;;;;11.20;6.38;;;;;;;20.34;61.03;102516.69;5093705;28;20036;-59
2022/08/07 07:54:37;;;;;;;10.82;5.57;;;;;;;20.52;59.98;102513.47;5090983;28;20551;-58
2022/08/07 07:57:13;;;;;;;9.45;4.60;;;;;;;20.76;59.88;102510.66;5091799;28;20150;-58
2022/08/07 07:59:45;;;;;;;11.17;6.13;;;;;;;20.95;58.73;102507.31;5094158;28;20546;-59
2022/08/07 08:02:21;;;;;;;8.82;5.70;;;;;;;21.01;56.67;102505.94;5094037;28;20048;-61
2022/08/07 08:05:04;;;;;;;9.90;5.22;;;;;;;21.28;58.34;102506.28;5094222;28;20393;-59
2022/08/07 08:07:39;;;;;;;9.18;5.10;;;;;;;21.53;57.56;102506.03;5093942;28;20075;-60
2022/08/07 08:10:19;;;;;;;9.40;4.07;;;;;;;21.64;55.85;102503.31;5091631;28;20036;-59
2022/08/07 08:13:08;;;;;;;6.57;3.42;;;;;;;21.86;54.15;102507.63;5090182;28;20055;-61
2022/08/07 08:15:46;;;;;;;8.50;3.35;;;;;;;22.05;53.21;102496.16;5092651;28;20540;-62
2022/08/07 08:18:29;;;;;;;8.10;3.28;;;;;;;22.34;52.44;102497.22;5094000;28;20056;-61
2022/08/07 08:21:00;;;;;;;9.60;3.53;;;;;;;22.56;51.50;102491.63;5092974;28;20624;-59
2022/08/07 08:29:06;;;;;;;6.47;2.83;;;;;;;22.92;48.65;102488.41;5092697;28;20913;-59
2022/08/07 08:31:39;;;;;;;6.20;2.72;;;;;;;22.72;47.86;102480.34;5093377;28;20526;-59
2022/08/07 08:34:30;;;;;;;6.57;2.58;;;;;;;23.01;48.40;102478.66;5089396;28;20137;-59
2022/08/07 08:36:59;;;;;;;7.97;3.00;;;;;;;23.06;47.77;102474.56;5091766;28;20075;-59
2022/08/07 08:39:29;;;;;;;6.18;3.05;;;;;;;23.29;47.39;102472.44;5090361;28;20130;-66
2022/08/07 08:42:25;;;;;;;6.65;2.70;;;;;;;23.50;46.03;102468.69;5090425;28;20478;-60
2022/08/07 08:45:02;;;;;;;6.68;2.35;;;;;;;23.60;46.31;102472.19;5093211;28;20043;-60
2022/08/07 08:47:40;;;;;;;5.47;2.08;;;;;;;;;;5093484;28;20047;-60
2022/08/07 08:50:22;;;;;;;4.60;2.17;;;;;;;23.90;44.50;102475.66;5093416;28;20037;-58
2022/08/07 08:53:18;;;;;;;5.38;2.00;;;;;;;24.21;45.14;102474.47;5093125;28;20506;-58
2022/08/07 08:55:51;;;;;;;4.50;1.95;;;;;;;24.33;46.22;102470.56;5092900;28;20085;-61
2022/08/07 08:58:33;;;;;;;4.47;2.15;;;;;;;24.56;43.09;102470.16;5093003;28;20063;-60
2022/08/07 09:01:10;;;;;;;4.65;1.73;;;;;;;24.75;42.31;102464.63;5092640;28;20059;-60
2022/08/07 09:03:56;;;;;;;4.05;2.08;;;;;;;24.92;42.22;102462.94;5093171;28;20104;-58
2022/08/07 09:06:40;;;;;;;4.07;1.98;;;;;;;24.80;39.25;102466.84;5092793;28;20399;-60
2022/08/07 09:09:31;;;;;;;4.35;1.92;;;;;;;24.89;40.61;102462.38;5092914;28;20044;-60
2022/08/07 09:12:14;;;;;;;5.03;2.10;;;;;;;25.21;40.39;102471.69;5092813;28;20437;-60
2022/08/07 09:15:15;;;;;;;4.20;2.40;;;;;;;25.12;39.47;102465.41;5091556;28;20079;-60
2022/08/07 09:18:18;;;;;;;6.35;2.05;;;;;;;25.09;40.50;102468.44;5089759;28;20052;-60
2022/08/07 09:21:03;;;;;;;4.68;1.90;;;;;;;25.23;39.48;102465.16;5091667;28;20097;-59
2022/08/07 09:23:46;;;;;;;5.22;1.85;;;;;;;25.45;39.22;102455.72;5092528;28;20044;-60
2022/08/07 09:26:46;;;;;;;3.10;1.67;;;;;;;25.89;39.84;102462.00;5092427;28;20051;-58
2022/08/07 09:29:36;;;;;;;3.80;1.70;;;;;;;25.81;37.83;102454.75;5092368;28;20051;-60
2022/08/07 09:32:31;;;;;;;5.30;1.75;;;;;;;25.70;36.79;102458.56;5092525;28;20044;-58
2022/08/07 09:35:08;;;;;;;3.65;1.70;;;;;;;25.40;38.51;102458.06;5091814;28;20067;-60
2022/08/07 09:38:10;;;;;;;3.88;1.70;;;;;;;25.25;38.71;102457.78;5091417;28;20055;-59
2022/08/07 09:40:54;;;;;;;4.80;1.70;;;;;;;25.06;38.00;102455.28;5091213;28;20047;-61
2022/08/07 09:43:31;;;;;;;4.85;1.73;;;;;;;25.49;39.59;102445.47;5088931;28;20044;-61
2022/08/07 09:46:32;;;;;;;2.78;1.50;;;;;;;25.80;37.09;102445.78;5091384;28;20499;-60
2022/08/07 09:49:37;;;;;;;5.38;2.03;;;;;;;25.88;36.84;102445.00;5092307;28;20048;-59
2022/08/07 09:52:32;;;;;;;3.67;1.88;;;;;;;26.23;38.34;102434.16;5092176;28;20445;-58
2022/08/07 09:55:14;;;;;;;3.67;2.00;;;;;;;26.24;36.02;102433.16;5092131;28;20369;-60
2022/08/07 09:58:40;;;;;;;5.00;1.75;;;;;;;26.66;36.57;102426.78;5092258;28;20133;-60
2022/08/07 10:01:31;;;;;;;3.70;1.70;;;;;;;26.53;35.28;102421.03;5061139;28;20060;-61
2022/08/07 10:04:33;;;;;;;2.95;1.35;;;;;;;26.92;36.59;102425.78;5092033;28;20072;-60
2022/08/07 10:07:29;;;;;;;3.90;1.55;;;;;;;27.29;35.52;102416.25;5091831;28;20082;-61
2022/08/07 10:10:31;;;;;;;4.32;1.92;;;;;;;27.47;34.56;102406.09;5091158;28;20086;-60
2022/08/07 10:13:43;;;;;;;5.82;2.10;;;;;;;27.30;34.87;102404.44;5088457;28;20048;-59
2022/08/07 10:17:05;;;;;;;4.43;1.70;;;;;;;27.43;33.45;102403.91;5092037;28;20118;-62
2022/08/07 10:19:57;;;;;;;4.57;1.90;;;;;;;27.01;33.36;102405.88;5091741;28;20121;-61
2022/08/07 10:23:00;;;;;;;4.53;1.65;;;;;;;27.42;34.13;102399.53;5091948;28;20474;-59
2022/08/07 10:25:44;;;;;;;3.58;1.70;;;;;;;27.67;33.89;102394.88;5091089;28;20048;-59
2022/08/07 10:28:50;;;;;;;3.30;1.80;;;;;;;27.72;33.19;102394.31;5091225;28;20054;-61
2022/08/07 10:31:41;;;;;;;2.38;1.45;;;;;;;27.38;32.37;102396.34;5091305;28;20044;-59
2022/08/07 10:34:32;;;;;;;3.60;1.55;;;;;;;27.47;32.04;102398.00;5090996;28;20490;-59
2022/08/07 10:37:13;;;;;;;4.05;1.85;;;;;;;27.99;32.08;102382.16;5087534;28;20067;-58
2022/08/07 10:39:56;;;;;;;4.27;1.97;;;;;;;28.39;31.47;102388.34;5089426;28;20541;-58
2022/08/07 10:42:42;;;;;;;3.85;1.70;;;;;;;28.39;31.39;102395.63;5091274;28;20553;-61
2022/08/07 10:45:26;;;;;;;6.40;1.65;;;;;;;28.16;30.06;102389.19;5090603;28;20077;-60
2022/08/07 10:48:31;;;;;;;3.47;1.83;;;;;;;27.87;30.34;102386.31;5091105;28;20044;-64
2022/08/07 10:51:07;;;;;;;2.65;1.50;;;;;;;28.45;31.38;102384.06;5094885;28;20044;-62
2022/08/07 10:54:13;;;;;;;4.72;1.60;;;;;;;28.66;30.76;102381.53;5095185;28;20044;-63
2022/08/07 10:56:57;;;;;;;4.57;1.50;;;;;;;28.82;29.36;102385.97;5091363;28;20044;-62
2022/08/07 10:59:41;;;;;;;4.00;1.63;;;;;;;28.84;29.56;102385.78;5092102;28;20047;-57
2022/08/07 11:02:19;;;;;;;2.38;1.60;;;;;;;29.31;30.17;102379.19;5095321;28;20048;-63
2022/08/07 11:05:11;;;;;;;4.15;1.77;;;;;;;29.65;29.69;102375.00;5095146;28;20398;-56
2022/08/07 11:07:48;;;;;;;4.90;1.73;;;;;;;29.79;28.81;102370.59;5094918;28;20044;-62
2022/08/07 11:10:37;;;;;;;3.28;1.50;;;;;;;29.86;27.84;102356.28;5091501;28;20098;-57
2022/08/07 11:13:12;;;;;;;2.53;1.45;;;;;;;29.76;28.10;102360.13;5093398;28;20093;-62
2022/08/07 11:16:08;;;;;;;2.95;1.60;;;;;;;29.64;27.87;102350.81;5093921;28;20063;-58
2022/08/07 11:18:42;;;;;;;3.60;1.50;;;;;;;29.87;27.62;102349.84;5094932;28;20079;-63
2022/08/07 11:21:29;;;;;;;4.43;1.63;;;;;;;30.21;28.15;102342.88;5093673;28;20052;-62
2022/08/07 11:24:05;;;;;;;4.00;1.60;;;;;;;30.07;27.75;102334.59;5094923;28;20147;-63
2022/08/07 11:26:41;;;;;;;3.78;1.50;;;;;;;30.07;27.43;102334.59;5094603;28;20050;-63
2022/08/07 11:29:25;;;;;;;4.53;1.50;;;;;;;30.49;29.16;102330.19;5093392;28;20123;-58
2022/08/07 11:32:18;;;;;;;3.20;1.50;;;;;;;30.74;27.46;102332.44;5091708;28;20056;-63
2022/08/07 11:34:57;;;;;;;4.55;1.60;;;;;;;30.84;27.38;102335.66;5094916;28;20433;-56
2022/08/07 11:37:37;;;;;;;3.88;1.88;;;;;;;30.45;26.78;102326.19;5093588;28;20117;-61
2022/08/07 11:40:35;;;;;;;4.03;1.77;;;;;;;30.93;26.63;102319.19;5091580;28;20082;-61
2022/08/07 11:43:13;;;;;;;2.50;1.63;;;;;;;30.73;26.76;102311.75;5094175;28;20047;-57
2022/08/07 11:46:05;;;;;;;4.05;1.67;;;;;;;31.00;26.81;102314.63;5093203;28;20052;-57
2022/08/07 11:48:59;;;;;;;3.03;1.55;;;;;;;31.02;25.81;102315.28;5081158;28;20051;-62
2022/08/07 11:52:01;;;;;;;3.88;2.05;;;;;;;30.49;27.00;102311.19;5094727;28;20526;-58
2022/08/07 11:54:56;;;;;;;3.17;1.50;;;;;;;30.60;26.77;102308.97;5094467;28;20128;-58
2022/08/07 11:57:33;;;;;;;4.32;1.80;;;;;;;30.55;27.67;102308.72;5094649;28;20487;-57
2022/08/07 12:00:31;;;;;;;4.65;1.80;;;;;;;30.84;25.48;102310.34;5093689;28;20052;-57
2022/08/07 12:03:25;;;;;;;4.22;1.77;;;;;;;31.12;26.87;102309.50;5092693;28;20075;-63
2022/08/07 12:06:38;;;;;;;4.85;2.00;;;;;;;31.26;25.42;102296.78;5090508;28;20383;-57
2022/08/07 12:09:31;;;;;;;2.67;1.60;;;;;;;31.67;24.89;102299.47;5093729;28;20070;-58
2022/08/07 12:12:07;;;;;;;2.65;1.80;;;;;;;32.23;26.32;102299.28;5093983;28;20052;-58
2022/08/07 12:14:47;;;;;;;3.00;1.88;;;;;;;32.14;24.80;102298.66;5094050;28;20694;-62
2022/08/07 12:17:29;;;;;;;3.47;1.90;;;;;;;32.43;25.59;102300.13;5092757;28;20058;-63
2022/08/07 12:20:06;;;;;;;3.17;1.85;;;;;;;32.43;24.94;102302.84;5091048;28;20043;-59
2022/08/07 12:23:12;;;;;;;5.13;2.00;;;;;;;32.80;24.82;102300.47;5092963;28;20044;-57
2022/08/07 12:25:55;;;;;;;2.53;1.75;;;;;;;32.85;23.59;102300.66;5093597;28;20055;-58
2022/08/07 12:28:56;;;;;;;3.80;1.90;;;;;;;32.45;23.97;102298.03;5093808;28;20040;-57
2022/08/07 12:31:31;;;;;;;4.13;2.10;;;;;;;32.77;24.17;102294.63;5093703;28;20040;-61
2022/08/07 12:34:20;;;;;;;3.47;2.03;;;;;;;33.33;24.74;102287.72;5083227;28;20032;-61